sensor_id;sensor_type;location;lat;lon;timestamp;P1;durP1;ratioP1;P2;durP2;ratioP2
33074;SDS011;19433;51.292;6.868;2023-08-01T00:01:02;1.37;;;1.27;;
33074;SDS011;19433;51.292;6.868;2023-08-01T00:03:27;1.97;;;1.13;;
33074;SDS011;19433;51.292;6.868;2023-08-01T00:05:53;1.40;;;1.30;;
33074;SDS011;19433;51.292;6.868;2023-08-01T00:08:19;1.77;;;1.10;;
33074;SDS011;19433;51.292;6.868;2023-08-01T00:10:45;1.13;;;0.90;;
33074;SDS011;19433;51.292;6.868;2023-08-01T00:13:10;1.30;;;1.20;;
33074;SDS011;19433;51.292;6.868;2023-08-01T00:15:36;1.10;;;1.00;;
33074;SDS011;19433;51.292;6.868;2023-08-01T00:18:01;1.23;;;1.23;;
33074;SDS011;19433;51.292;6.868;2023-08-01T00:20:27;1.20;;;1.10;;
33074;SDS011;19433;51.292;6.868;2023-08-01T00:22:52;1.37;;;1.10;;
33074;SDS011;19433;51.292;6.868;2023-08-01T00:25:17;1.20;;;0.80;;
33074;SDS011;19433;51.292;6.868;2023-08-01T00:27:43;0.97;;;0.97;;
33074;SDS011;19433;51.292;6.868;2023-08-01T00:30:08;0.80;;;0.73;;
33074;SDS011;19433;51.292;6.868;2023-08-01T00:32:34;1.53;;;0.60;;
33074;SDS011;19433;51.292;6.868;2023-08-01T00:35:00;1.53;;;0.40;;
33074;SDS011;19433;51.292;6.868;2023-08-01T00:37:25;0.60;;;0.60;;
33074;SDS011;19433;51.292;6.868;2023-08-01T00:39:50;2.83;;;0.80;;
33074;SDS011;19433;51.292;6.868;2023-08-01T00:42:15;0.60;;;0.60;;
33074;SDS011;19433;51.292;6.868;2023-08-01T00:44:41;0.60;;;0.50;;
33074;SDS011;19433;51.292;6.868;2023-08-01T00:47:06;0.60;;;0.50;;
33074;SDS011;19433;51.292;6.868;2023-08-01T00:49:32;0.60;;;0.50;;
33074;SDS011;19433;51.292;6.868;2023-08-01T00:51:57;1.53;;;0.60;;
33074;SDS011;19433;51.292;6.868;2023-08-01T00:54:23;1.00;;;0.60;;
33074;SDS011;19433;51.292;6.868;2023-08-01T00:56:48;1.10;;;0.50;;
33074;SDS011;19433;51.292;6.868;2023-08-01T00:59:14;0.87;;;0.60;;
33074;SDS011;19433;51.292;6.868;2023-08-01T01:01:39;0.50;;;0.50;;
33074;SDS011;19433;51.292;6.868;2023-08-01T01:04:04;0.50;;;0.50;;
33074;SDS011;19433;51.292;6.868;2023-08-01T01:06:51;0.60;;;0.50;;
33074;SDS011;19433;51.292;6.868;2023-08-01T01:09:19;1.70;;;0.50;;
33074;SDS011;19433;51.292;6.868;2023-08-01T01:11:45;0.50;;;0.50;;
33074;SDS011;19433;51.292;6.868;2023-08-01T01:14:11;0.67;;;0.60;;
33074;SDS011;19433;51.292;6.868;2023-08-01T01:16:36;0.80;;;0.60;;
33074;SDS011;19433;51.292;6.868;2023-08-01T01:19:05;1.17;;;0.50;;
33074;SDS011;19433;51.292;6.868;2023-08-01T01:21:33;2.10;;;0.73;;
33074;SDS011;19433;51.292;6.868;2023-08-01T01:24:00;1.70;;;0.70;;
33074;SDS011;19433;51.292;6.868;2023-08-01T01:26:28;0.70;;;0.70;;
33074;SDS011;19433;51.292;6.868;2023-08-01T01:28:53;0.60;;;0.60;;
33074;SDS011;19433;51.292;6.868;2023-08-01T01:31:19;0.77;;;0.77;;
33074;SDS011;19433;51.292;6.868;2023-08-01T01:33:45;2.20;;;0.80;;
33074;SDS011;19433;51.292;6.868;2023-08-01T01:36:11;0.70;;;0.50;;
33074;SDS011;19433;51.292;6.868;2023-08-01T01:38:36;1.00;;;0.67;;
33074;SDS011;19433;51.292;6.868;2023-08-01T01:41:01;0.80;;;0.70;;
33074;SDS011;19433;51.292;6.868;2023-08-01T01:43:27;0.60;;;0.60;;
33074;SDS011;19433;51.292;6.868;2023-08-01T01:45:52;0.80;;;0.57;;
33074;SDS011;19433;51.292;6.868;2023-08-01T01:48:17;1.83;;;0.60;;
33074;SDS011;19433;51.292;6.868;2023-08-01T01:50:42;0.70;;;0.70;;
33074;SDS011;19433;51.292;6.868;2023-08-01T01:53:08;2.10;;;0.90;;
33074;SDS011;19433;51.292;6.868;2023-08-01T01:55:33;0.60;;;0.60;;
33074;SDS011;19433;51.292;6.868;2023-08-01T01:57:59;1.30;;;0.77;;
33074;SDS011;19433;51.292;6.868;2023-08-01T02:00:24;2.80;;;2.60;;
33074;SDS011;19433;51.292;6.868;2023-08-01T02:02:50;0.70;;;0.70;;
33074;SDS011;19433;51.292;6.868;2023-08-01T02:05:15;0.77;;;0.77;;
33074;SDS011;19433;51.292;6.868;2023-08-01T02:07:40;1.40;;;1.30;;
33074;SDS011;19433;51.292;6.868;2023-08-01T02:10:06;1.20;;;1.10;;
33074;SDS011;19433;51.292;6.868;2023-08-01T02:12:31;1.50;;;1.40;;
33074;SDS011;19433;51.292;6.868;2023-08-01T02:14:57;1.47;;;1.37;;
33074;SDS011;19433;51.292;6.868;2023-08-01T02:17:23;1.70;;;1.60;;
33074;SDS011;19433;51.292;6.868;2023-08-01T02:19:49;1.50;;;1.40;;
33074;SDS011;19433;51.292;6.868;2023-08-01T02:22:14;2.27;;;1.97;;
33074;SDS011;19433;51.292;6.868;2023-08-01T02:24:39;2.63;;;2.43;;
33074;SDS011;19433;51.292;6.868;2023-08-01T02:27:04;2.57;;;2.37;;
33074;SDS011;19433;51.292;6.868;2023-08-01T02:29:30;2.80;;;2.60;;
33074;SDS011;19433;51.292;6.868;2023-08-01T02:31:55;2.67;;;2.47;;
33074;SDS011;19433;51.292;6.868;2023-08-01T02:34:21;2.97;;;2.80;;
33074;SDS011;19433;51.292;6.868;2023-08-01T02:36:46;3.10;;;2.90;;
33074;SDS011;19433;51.292;6.868;2023-08-01T02:39:11;5.13;;;3.60;;
33074;SDS011;19433;51.292;6.868;2023-08-01T02:41:37;3.67;;;3.47;;
33074;SDS011;19433;51.292;6.868;2023-08-01T02:44:02;9.07;;;3.97;;
33074;SDS011;19433;51.292;6.868;2023-08-01T02:46:27;6.47;;;4.47;;
33074;SDS011;19433;51.292;6.868;2023-08-01T02:48:54;4.07;;;3.77;;
33074;SDS011;19433;51.292;6.868;2023-08-01T02:51:20;5.07;;;4.30;;
33074;SDS011;19433;51.292;6.868;2023-08-01T02:53:45;3.90;;;3.50;;
33074;SDS011;19433;51.292;6.868;2023-08-01T02:56:10;7.63;;;4.87;;
33074;SDS011;19433;51.292;6.868;2023-08-01T02:58:36;7.53;;;4.03;;
33074;SDS011;19433;51.292;6.868;2023-08-01T03:01:01;6.40;;;4.40;;
33074;SDS011;19433;51.292;6.868;2023-08-01T03:03:31;4.83;;;4.43;;
33074;SDS011;19433;51.292;6.868;2023-08-01T03:05:57;4.90;;;4.50;;
33074;SDS011;19433;51.292;6.868;2023-08-01T03:08:22;4.73;;;4.33;;
33074;SDS011;19433;51.292;6.868;2023-08-01T03:10:47;6.90;;;5.57;;
33074;SDS011;19433;51.292;6.868;2023-08-01T03:13:12;6.83;;;6.23;;
33074;SDS011;19433;51.292;6.868;2023-08-01T03:15:38;6.47;;;5.83;;
33074;SDS011;19433;51.292;6.868;2023-08-01T03:18:03;6.03;;;5.47;;
33074;SDS011;19433;51.292;6.868;2023-08-01T03:20:29;7.67;;;6.97;;
33074;SDS011;19433;51.292;6.868;2023-08-01T03:22:54;7.97;;;7.17;;
33074;SDS011;19433;51.292;6.868;2023-08-01T03:25:19;9.30;;;8.40;;
33074;SDS011;19433;51.292;6.868;2023-08-01T03:27:45;15.17;;;9.27;;
33074;SDS011;19433;51.292;6.868;2023-08-01T03:30:10;8.60;;;7.80;;
33074;SDS011;19433;51.292;6.868;2023-08-01T03:32:35;8.80;;;7.90;;
33074;SDS011;19433;51.292;6.868;2023-08-01T03:35:02;7.67;;;6.90;;
33074;SDS011;19433;51.292;6.868;2023-08-01T03:37:30;8.20;;;7.50;;
33074;SDS011;19433;51.292;6.868;2023-08-01T03:39:56;8.50;;;7.70;;
33074;SDS011;19433;51.292;6.868;2023-08-01T03:42:21;12.27;;;9.47;;
33074;SDS011;19433;51.292;6.868;2023-08-01T03:44:46;9.97;;;8.57;;
33074;SDS011;19433;51.292;6.868;2023-08-01T03:47:11;11.23;;;8.23;;
33074;SDS011;19433;51.292;6.868;2023-08-01T03:49:37;9.03;;;7.70;;
33074;SDS011;19433;51.292;6.868;2023-08-01T03:52:03;10.27;;;8.80;;
33074;SDS011;19433;51.292;6.868;2023-08-01T03:54:29;11.57;;;8.40;;
33074;SDS011;19433;51.292;6.868;2023-08-01T03:56:55;8.57;;;7.83;;
33074;SDS011;19433;51.292;6.868;2023-08-01T03:59:20;11.70;;;7.70;;
33074;SDS011;19433;51.292;6.868;2023-08-01T04:01:45;10.90;;;7.70;;
33074;SDS011;19433;51.292;6.868;2023-08-01T04:04:10;8.43;;;7.50;;
33074;SDS011;19433;51.292;6.868;2023-08-01T04:06:36;8.20;;;7.50;;
33074;SDS011;19433;51.292;6.868;2023-08-01T04:09:01;12.00;;;8.00;;
33074;SDS011;19433;51.292;6.868;2023-08-01T04:11:27;10.60;;;7.50;;
33074;SDS011;19433;51.292;6.868;2023-08-01T04:13:54;7.80;;;7.17;;
33074;SDS011;19433;51.292;6.868;2023-08-01T04:16:20;18.40;;;8.07;;
33074;SDS011;19433;51.292;6.868;2023-08-01T04:18:46;15.93;;;8.10;;
33074;SDS011;19433;51.292;6.868;2023-08-01T04:21:12;11.37;;;8.50;;
33074;SDS011;19433;51.292;6.868;2023-08-01T04:23:39;10.77;;;8.47;;
33074;SDS011;19433;51.292;6.868;2023-08-01T04:26:04;15.43;;;9.17;;
33074;SDS011;19433;51.292;6.868;2023-08-01T04:28:31;10.90;;;9.03;;
33074;SDS011;19433;51.292;6.868;2023-08-01T04:30:57;18.33;;;10.00;;
33074;SDS011;19433;51.292;6.868;2023-08-01T04:33:22;13.70;;;8.87;;
33074;SDS011;19433;51.292;6.868;2023-08-01T04:35:47;12.87;;;9.70;;
33074;SDS011;19433;51.292;6.868;2023-08-01T04:38:14;17.20;;;12.00;;
33074;SDS011;19433;51.292;6.868;2023-08-01T04:40:39;11.20;;;9.40;;
33074;SDS011;19433;51.292;6.868;2023-08-01T04:43:05;15.33;;;10.53;;
33074;SDS011;19433;51.292;6.868;2023-08-01T04:45:30;17.57;;;10.37;;
33074;SDS011;19433;51.292;6.868;2023-08-01T04:47:55;14.30;;;10.53;;
33074;SDS011;19433;51.292;6.868;2023-08-01T04:50:20;15.13;;;10.80;;
33074;SDS011;19433;51.292;6.868;2023-08-01T04:52:46;18.13;;;11.73;;
33074;SDS011;19433;51.292;6.868;2023-08-01T04:55:11;13.60;;;11.43;;
33074;SDS011;19433;51.292;6.868;2023-08-01T04:57:37;15.10;;;12.13;;
33074;SDS011;19433;51.292;6.868;2023-08-01T05:00:02;17.67;;;11.50;;
33074;SDS011;19433;51.292;6.868;2023-08-01T05:02:29;16.80;;;11.27;;
33074;SDS011;19433;51.292;6.868;2023-08-01T05:04:54;15.00;;;10.57;;
33074;SDS011;19433;51.292;6.868;2023-08-01T05:07:20;19.03;;;12.10;;
33074;SDS011;19433;51.292;6.868;2023-08-01T05:09:45;15.40;;;12.10;;
33074;SDS011;19433;51.292;6.868;2023-08-01T05:12:10;17.50;;;11.50;;
33074;SDS011;19433;51.292;6.868;2023-08-01T05:14:35;17.70;;;12.47;;
33074;SDS011;19433;51.292;6.868;2023-08-01T05:17:01;16.73;;;11.43;;
33074;SDS011;19433;51.292;6.868;2023-08-01T05:19:26;22.50;;;12.23;;
33074;SDS011;19433;51.292;6.868;2023-08-01T05:21:51;18.30;;;12.43;;
33074;SDS011;19433;51.292;6.868;2023-08-01T05:24:16;16.03;;;12.50;;
33074;SDS011;19433;51.292;6.868;2023-08-01T05:26:42;19.67;;;13.73;;
33074;SDS011;19433;51.292;6.868;2023-08-01T05:29:07;20.50;;;12.10;;
33074;SDS011;19433;51.292;6.868;2023-08-01T05:31:32;16.93;;;10.83;;
33074;SDS011;19433;51.292;6.868;2023-08-01T05:33:58;16.50;;;12.10;;
33074;SDS011;19433;51.292;6.868;2023-08-01T05:36:23;18.03;;;11.93;;
33074;SDS011;19433;51.292;6.868;2023-08-01T05:38:48;14.80;;;11.83;;
33074;SDS011;19433;51.292;6.868;2023-08-01T05:41:13;12.17;;;10.33;;
33074;SDS011;19433;51.292;6.868;2023-08-01T05:43:39;12.93;;;10.10;;
33074;SDS011;19433;51.292;6.868;2023-08-01T05:46:04;12.67;;;10.90;;
33074;SDS011;19433;51.292;6.868;2023-08-01T05:48:29;18.77;;;12.00;;
33074;SDS011;19433;51.292;6.868;2023-08-01T05:50:54;12.57;;;10.20;;
33074;SDS011;19433;51.292;6.868;2023-08-01T05:53:20;18.70;;;9.90;;
33074;SDS011;19433;51.292;6.868;2023-08-01T05:55:46;12.30;;;9.30;;
33074;SDS011;19433;51.292;6.868;2023-08-01T05:58:11;12.23;;;9.17;;
33074;SDS011;19433;51.292;6.868;2023-08-01T06:00:37;11.40;;;9.90;;
33074;SDS011;19433;51.292;6.868;2023-08-01T06:03:02;14.57;;;9.50;;
33074;SDS011;19433;51.292;6.868;2023-08-01T06:05:27;15.20;;;10.00;;
33074;SDS011;19433;51.292;6.868;2023-08-01T06:07:53;14.10;;;10.17;;
33074;SDS011;19433;51.292;6.868;2023-08-01T06:10:18;15.07;;;9.10;;
33074;SDS011;19433;51.292;6.868;2023-08-01T06:12:43;17.60;;;10.33;;
33074;SDS011;19433;51.292;6.868;2023-08-01T06:15:09;12.13;;;9.17;;
33074;SDS011;19433;51.292;6.868;2023-08-01T06:17:34;11.90;;;9.87;;
33074;SDS011;19433;51.292;6.868;2023-08-01T06:20:00;12.30;;;8.37;;
33074;SDS011;19433;51.292;6.868;2023-08-01T06:22:29;12.23;;;9.07;;
33074;SDS011;19433;51.292;6.868;2023-08-01T06:24:54;10.40;;;8.77;;
33074;SDS011;19433;51.292;6.868;2023-08-01T06:27:20;17.07;;;9.10;;
33074;SDS011;19433;51.292;6.868;2023-08-01T06:29:45;13.10;;;8.57;;
33074;SDS011;19433;51.292;6.868;2023-08-01T06:32:11;11.00;;;9.47;;
33074;SDS011;19433;51.292;6.868;2023-08-01T06:34:36;14.70;;;8.00;;
33074;SDS011;19433;51.292;6.868;2023-08-01T06:37:01;12.93;;;9.20;;
33074;SDS011;19433;51.292;6.868;2023-08-01T06:39:27;10.17;;;8.30;;
33074;SDS011;19433;51.292;6.868;2023-08-01T06:41:52;10.77;;;7.93;;
33074;SDS011;19433;51.292;6.868;2023-08-01T06:44:18;9.00;;;7.57;;
33074;SDS011;19433;51.292;6.868;2023-08-01T06:46:43;10.03;;;8.97;;
33074;SDS011;19433;51.292;6.868;2023-08-01T06:49:08;13.07;;;8.93;;
33074;SDS011;19433;51.292;6.868;2023-08-01T06:51:33;9.00;;;7.37;;
33074;SDS011;19433;51.292;6.868;2023-08-01T06:53:59;10.50;;;7.60;;
33074;SDS011;19433;51.292;6.868;2023-08-01T06:56:24;13.40;;;7.47;;
33074;SDS011;19433;51.292;6.868;2023-08-01T06:58:49;8.40;;;6.73;;
33074;SDS011;19433;51.292;6.868;2023-08-01T07:01:15;10.40;;;6.93;;
33074;SDS011;19433;51.292;6.868;2023-08-01T07:03:40;9.20;;;6.50;;
33074;SDS011;19433;51.292;6.868;2023-08-01T07:06:06;8.53;;;7.30;;
33074;SDS011;19433;51.292;6.868;2023-08-01T07:08:31;10.43;;;6.87;;
33074;SDS011;19433;51.292;6.868;2023-08-01T07:10:57;9.87;;;7.70;;
33074;SDS011;19433;51.292;6.868;2023-08-01T07:13:24;13.33;;;6.13;;
33074;SDS011;19433;51.292;6.868;2023-08-01T07:15:50;8.30;;;7.30;;
33074;SDS011;19433;51.292;6.868;2023-08-01T07:18:16;8.13;;;7.23;;
33074;SDS011;19433;51.292;6.868;2023-08-01T07:20:41;8.37;;;7.20;;
33074;SDS011;19433;51.292;6.868;2023-08-01T07:23:06;7.17;;;6.30;;
33074;SDS011;19433;51.292;6.868;2023-08-01T07:25:32;8.40;;;7.00;;
33074;SDS011;19433;51.292;6.868;2023-08-01T07:27:57;7.30;;;6.23;;
33074;SDS011;19433;51.292;6.868;2023-08-01T07:30:22;7.13;;;6.43;;
33074;SDS011;19433;51.292;6.868;2023-08-01T07:32:48;8.80;;;6.40;;
33074;SDS011;19433;51.292;6.868;2023-08-01T07:35:13;10.33;;;7.40;;
33074;SDS011;19433;51.292;6.868;2023-08-01T07:37:38;6.90;;;6.30;;
33074;SDS011;19433;51.292;6.868;2023-08-01T07:40:07;11.13;;;7.67;;
33074;SDS011;19433;51.292;6.868;2023-08-01T07:42:33;6.97;;;6.23;;
33074;SDS011;19433;51.292;6.868;2023-08-01T07:44:58;7.43;;;6.70;;
33074;SDS011;19433;51.292;6.868;2023-08-01T07:47:23;6.83;;;5.67;;
33074;SDS011;19433;51.292;6.868;2023-08-01T07:49:49;8.20;;;7.03;;
33074;SDS011;19433;51.292;6.868;2023-08-01T07:52:15;10.13;;;7.07;;
33074;SDS011;19433;51.292;6.868;2023-08-01T07:54:40;7.80;;;7.03;;
33074;SDS011;19433;51.292;6.868;2023-08-01T07:57:06;7.53;;;6.70;;
33074;SDS011;19433;51.292;6.868;2023-08-01T07:59:31;7.53;;;6.43;;
33074;SDS011;19433;51.292;6.868;2023-08-01T08:01:56;7.97;;;7.03;;
33074;SDS011;19433;51.292;6.868;2023-08-01T08:04:22;6.70;;;6.10;;
33074;SDS011;19433;51.292;6.868;2023-08-01T08:06:47;5.50;;;5.00;;
33074;SDS011;19433;51.292;6.868;2023-08-01T08:09:12;6.20;;;5.60;;
33074;SDS011;19433;51.292;6.868;2023-08-01T08:11:38;5.80;;;5.30;;
33074;SDS011;19433;51.292;6.868;2023-08-01T08:14:03;6.10;;;5.60;;
33074;SDS011;19433;51.292;6.868;2023-08-01T08:16:28;6.40;;;5.47;;
33074;SDS011;19433;51.292;6.868;2023-08-01T08:18:54;8.80;;;5.73;;
33074;SDS011;19433;51.292;6.868;2023-08-01T08:21:19;6.60;;;5.53;;
33074;SDS011;19433;51.292;6.868;2023-08-01T08:23:45;8.33;;;5.97;;
33074;SDS011;19433;51.292;6.868;2023-08-01T08:26:10;6.40;;;4.97;;
33074;SDS011;19433;51.292;6.868;2023-08-01T08:28:36;8.07;;;6.00;;
33074;SDS011;19433;51.292;6.868;2023-08-01T08:31:01;7.27;;;5.90;;
33074;SDS011;19433;51.292;6.868;2023-08-01T08:33:27;6.63;;;5.27;;
33074;SDS011;19433;51.292;6.868;2023-08-01T08:35:52;12.03;;;5.40;;
33074;SDS011;19433;51.292;6.868;2023-08-01T08:38:18;6.70;;;5.40;;
33074;SDS011;19433;51.292;6.868;2023-08-01T08:40:57;9.77;;;5.50;;
33074;SDS011;19433;51.292;6.868;2023-08-01T08:43:35;5.40;;;4.63;;
33074;SDS011;19433;51.292;6.868;2023-08-01T08:46:01;5.83;;;4.60;;
33074;SDS011;19433;51.292;6.868;2023-08-01T08:48:29;7.33;;;5.20;;
33074;SDS011;19433;51.292;6.868;2023-08-01T08:50:57;6.20;;;5.43;;
33074;SDS011;19433;51.292;6.868;2023-08-01T08:53:23;5.90;;;4.43;;
33074;SDS011;19433;51.292;6.868;2023-08-01T08:55:49;7.20;;;4.60;;
33074;SDS011;19433;51.292;6.868;2023-08-01T08:58:15;4.77;;;4.27;;
33074;SDS011;19433;51.292;6.868;2023-08-01T09:00:41;4.30;;;3.77;;
33074;SDS011;19433;51.292;6.868;2023-08-01T09:03:06;6.50;;;3.77;;
33074;SDS011;19433;51.292;6.868;2023-08-01T09:05:50;4.23;;;3.30;;
33074;SDS011;19433;51.292;6.868;2023-08-01T09:08:20;4.67;;;4.20;;
33074;SDS011;19433;51.292;6.868;2023-08-01T09:10:46;5.60;;;3.57;;
33074;SDS011;19433;51.292;6.868;2023-08-01T09:13:12;3.93;;;3.53;;
33074;SDS011;19433;51.292;6.868;2023-08-01T09:15:37;6.90;;;3.50;;
33074;SDS011;19433;51.292;6.868;2023-08-01T09:18:06;4.00;;;3.53;;
33074;SDS011;19433;51.292;6.868;2023-08-01T09:20:45;3.30;;;2.80;;
33074;SDS011;19433;51.292;6.868;2023-08-01T09:23:12;4.17;;;3.77;;
33074;SDS011;19433;51.292;6.868;2023-08-01T09:25:38;3.47;;;3.20;;
33074;SDS011;19433;51.292;6.868;2023-08-01T09:28:20;3.03;;;2.80;;
33074;SDS011;19433;51.292;6.868;2023-08-01T09:30:47;4.00;;;2.70;;
33074;SDS011;19433;51.292;6.868;2023-08-01T09:33:14;3.27;;;2.97;;
33074;SDS011;19433;51.292;6.868;2023-08-01T09:35:40;3.90;;;2.97;;
33074;SDS011;19433;51.292;6.868;2023-08-01T09:38:05;4.20;;;3.80;;
33074;SDS011;19433;51.292;6.868;2023-08-01T09:40:37;3.20;;;2.90;;
33074;SDS011;19433;51.292;6.868;2023-08-01T09:43:03;4.77;;;3.80;;
33074;SDS011;19433;51.292;6.868;2023-08-01T09:45:28;4.23;;;3.83;;
33074;SDS011;19433;51.292;6.868;2023-08-01T09:47:54;6.10;;;4.20;;
33074;SDS011;19433;51.292;6.868;2023-08-01T09:50:20;5.30;;;4.63;;
33074;SDS011;19433;51.292;6.868;2023-08-01T09:52:46;6.13;;;4.63;;
33074;SDS011;19433;51.292;6.868;2023-08-01T09:55:17;5.10;;;4.10;;
33074;SDS011;19433;51.292;6.868;2023-08-01T09:57:44;4.53;;;4.13;;
33074;SDS011;19433;51.292;6.868;2023-08-01T10:00:13;4.70;;;4.30;;
33074;SDS011;19433;51.292;6.868;2023-08-01T10:02:39;5.53;;;4.27;;
33074;SDS011;19433;51.292;6.868;2023-08-01T10:05:08;4.67;;;4.37;;
33074;SDS011;19433;51.292;6.868;2023-08-01T10:07:35;5.03;;;4.50;;
33074;SDS011;19433;51.292;6.868;2023-08-01T10:10:04;5.33;;;4.10;;
33074;SDS011;19433;51.292;6.868;2023-08-01T10:12:31;3.80;;;3.50;;
33074;SDS011;19433;51.292;6.868;2023-08-01T10:14:57;6.53;;;4.00;;
33074;SDS011;19433;51.292;6.868;2023-08-01T10:17:23;4.40;;;4.00;;
33074;SDS011;19433;51.292;6.868;2023-08-01T10:19:50;5.20;;;3.50;;
33074;SDS011;19433;51.292;6.868;2023-08-01T10:22:16;4.23;;;3.83;;
33074;SDS011;19433;51.292;6.868;2023-08-01T10:24:42;4.80;;;4.00;;
33074;SDS011;19433;51.292;6.868;2023-08-01T10:27:13;4.43;;;3.20;;
33074;SDS011;19433;51.292;6.868;2023-08-01T10:29:38;3.30;;;3.00;;
33074;SDS011;19433;51.292;6.868;2023-08-01T10:32:05;3.80;;;3.23;;
33074;SDS011;19433;51.292;6.868;2023-08-01T10:34:31;4.50;;;3.80;;
33074;SDS011;19433;51.292;6.868;2023-08-01T10:36:57;4.90;;;2.47;;
33074;SDS011;19433;51.292;6.868;2023-08-01T10:39:24;5.23;;;3.90;;
33074;SDS011;19433;51.292;6.868;2023-08-01T10:41:58;3.60;;;2.90;;
33074;SDS011;19433;51.292;6.868;2023-08-01T10:44:30;3.80;;;3.50;;
33074;SDS011;19433;51.292;6.868;2023-08-01T10:47:01;4.80;;;4.20;;
33074;SDS011;19433;51.292;6.868;2023-08-01T10:52:26;5.00;;;4.53;;
33074;SDS011;19433;51.292;6.868;2023-08-01T10:54:59;3.63;;;3.33;;
33074;SDS011;19433;51.292;6.868;2023-08-01T10:57:29;4.63;;;4.13;;
33074;SDS011;19433;51.292;6.868;2023-08-01T10:59:59;4.13;;;3.80;;
33074;SDS011;19433;51.292;6.868;2023-08-01T11:02:25;5.03;;;4.00;;
33074;SDS011;19433;51.292;6.868;2023-08-01T11:05:02;3.83;;;3.50;;
33074;SDS011;19433;51.292;6.868;2023-08-01T11:07:29;3.77;;;3.40;;
33074;SDS011;19433;51.292;6.868;2023-08-01T11:10:04;4.43;;;3.70;;
33074;SDS011;19433;51.292;6.868;2023-08-01T11:12:33;3.53;;;3.23;;
33074;SDS011;19433;51.292;6.868;2023-08-01T11:15:02;3.33;;;3.13;;
33074;SDS011;19433;51.292;6.868;2023-08-01T11:17:30;3.77;;;2.73;;
33074;SDS011;19433;51.292;6.868;2023-08-01T11:20:05;2.70;;;2.50;;
33074;SDS011;19433;51.292;6.868;2023-08-01T11:22:32;3.37;;;3.07;;
33074;SDS011;19433;51.292;6.868;2023-08-01T11:24:58;4.67;;;3.23;;
33074;SDS011;19433;51.292;6.868;2023-08-01T11:27:25;3.80;;;3.40;;
33074;SDS011;19433;51.292;6.868;2023-08-01T11:29:51;2.67;;;2.47;;
33074;SDS011;19433;51.292;6.868;2023-08-01T11:32:17;7.27;;;3.73;;
33074;SDS011;19433;51.292;6.868;2023-08-01T11:34:45;4.50;;;3.63;;
33074;SDS011;19433;51.292;6.868;2023-08-01T11:37:11;2.40;;;2.30;;
33074;SDS011;19433;51.292;6.868;2023-08-01T11:39:37;2.20;;;2.10;;
33074;SDS011;19433;51.292;6.868;2023-08-01T11:42:03;2.00;;;1.80;;
33074;SDS011;19433;51.292;6.868;2023-08-01T11:44:28;3.27;;;2.43;;
33074;SDS011;19433;51.292;6.868;2023-08-01T11:46:54;2.57;;;2.37;;
33074;SDS011;19433;51.292;6.868;2023-08-01T11:49:20;2.13;;;2.00;;
33074;SDS011;19433;51.292;6.868;2023-08-01T11:51:46;2.77;;;2.10;;
33074;SDS011;19433;51.292;6.868;2023-08-01T11:54:12;3.20;;;2.10;;
33074;SDS011;19433;51.292;6.868;2023-08-01T11:56:39;2.40;;;1.93;;
33074;SDS011;19433;51.292;6.868;2023-08-01T11:59:15;2.27;;;2.10;;
33074;SDS011;19433;51.292;6.868;2023-08-01T12:01:42;3.40;;;2.53;;
33074;SDS011;19433;51.292;6.868;2023-08-01T12:04:11;2.50;;;2.30;;
33074;SDS011;19433;51.292;6.868;2023-08-01T12:06:48;5.70;;;2.60;;
33074;SDS011;19433;51.292;6.868;2023-08-01T12:09:13;2.67;;;2.47;;
33074;SDS011;19433;51.292;6.868;2023-08-01T12:11:39;3.53;;;3.20;;
33074;SDS011;19433;51.292;6.868;2023-08-01T12:14:07;3.47;;;2.77;;
33074;SDS011;19433;51.292;6.868;2023-08-01T12:16:43;4.37;;;2.50;;
33074;SDS011;19433;51.292;6.868;2023-08-01T12:19:16;3.30;;;3.00;;
33074;SDS011;19433;51.292;6.868;2023-08-01T12:21:42;4.10;;;2.60;;
33074;SDS011;19433;51.292;6.868;2023-08-01T12:24:07;2.83;;;2.63;;
33074;SDS011;19433;51.292;6.868;2023-08-01T12:26:32;6.77;;;2.43;;
33074;SDS011;19433;51.292;6.868;2023-08-01T12:28:57;2.80;;;2.37;;
33074;SDS011;19433;51.292;6.868;2023-08-01T12:31:23;2.60;;;2.40;;
33074;SDS011;19433;51.292;6.868;2023-08-01T12:33:49;3.10;;;2.90;;
33074;SDS011;19433;51.292;6.868;2023-08-01T12:36:16;6.20;;;3.00;;
33074;SDS011;19433;51.292;6.868;2023-08-01T12:38:41;2.97;;;2.30;;
33074;SDS011;19433;51.292;6.868;2023-08-01T12:41:07;2.67;;;1.90;;
33074;SDS011;19433;51.292;6.868;2023-08-01T12:43:32;1.90;;;1.80;;
33074;SDS011;19433;51.292;6.868;2023-08-01T12:45:58;2.03;;;1.87;;
33074;SDS011;19433;51.292;6.868;2023-08-01T12:48:26;1.80;;;1.67;;
33074;SDS011;19433;51.292;6.868;2023-08-01T12:50:52;3.90;;;1.53;;
33074;SDS011;19433;51.292;6.868;2023-08-01T12:53:18;2.53;;;1.57;;
33074;SDS011;19433;51.292;6.868;2023-08-01T12:55:44;1.53;;;1.43;;
33074;SDS011;19433;51.292;6.868;2023-08-01T12:58:12;1.90;;;1.67;;
33074;SDS011;19433;51.292;6.868;2023-08-01T13:00:41;2.77;;;1.77;;
33074;SDS011;19433;51.292;6.868;2023-08-01T13:03:08;4.70;;;2.00;;
33074;SDS011;19433;51.292;6.868;2023-08-01T13:05:34;1.90;;;1.47;;
33074;SDS011;19433;51.292;6.868;2023-08-01T13:08:00;2.53;;;1.40;;
33074;SDS011;19433;51.292;6.868;2023-08-01T13:10:25;1.40;;;1.30;;
33074;SDS011;19433;51.292;6.868;2023-08-01T13:12:51;3.23;;;1.60;;
33074;SDS011;19433;51.292;6.868;2023-08-01T13:15:16;2.90;;;1.80;;
33074;SDS011;19433;51.292;6.868;2023-08-01T13:17:41;2.10;;;1.90;;
33074;SDS011;19433;51.292;6.868;2023-08-01T13:20:07;1.97;;;1.70;;
33074;SDS011;19433;51.292;6.868;2023-08-01T13:22:32;1.70;;;1.27;;
33074;SDS011;19433;51.292;6.868;2023-08-01T13:24:58;1.80;;;1.63;;
33074;SDS011;19433;51.292;6.868;2023-08-01T13:27:23;2.50;;;1.70;;
33074;SDS011;19433;51.292;6.868;2023-08-01T13:29:48;3.37;;;1.80;;
33074;SDS011;19433;51.292;6.868;2023-08-01T13:32:16;5.20;;;2.20;;
33074;SDS011;19433;51.292;6.868;2023-08-01T13:34:42;3.03;;;2.30;;
33074;SDS011;19433;51.292;6.868;2023-08-01T13:37:07;4.47;;;1.63;;
33074;SDS011;19433;51.292;6.868;2023-08-01T13:39:34;3.27;;;2.03;;
33074;SDS011;19433;51.292;6.868;2023-08-01T13:41:59;2.73;;;2.00;;
33074;SDS011;19433;51.292;6.868;2023-08-01T13:44:24;1.87;;;1.57;;
33074;SDS011;19433;51.292;6.868;2023-08-01T13:46:49;2.33;;;1.90;;
33074;SDS011;19433;51.292;6.868;2023-08-01T13:49:15;2.87;;;1.93;;
33074;SDS011;19433;51.292;6.868;2023-08-01T13:51:40;2.50;;;1.60;;
33074;SDS011;19433;51.292;6.868;2023-08-01T13:54:05;2.23;;;1.93;;
33074;SDS011;19433;51.292;6.868;2023-08-01T13:56:31;3.73;;;1.53;;
33074;SDS011;19433;51.292;6.868;2023-08-01T13:58:56;1.50;;;1.30;;
33074;SDS011;19433;51.292;6.868;2023-08-01T14:01:21;2.33;;;1.30;;
33074;SDS011;19433;51.292;6.868;2023-08-01T14:03:46;2.83;;;1.33;;
33074;SDS011;19433;51.292;6.868;2023-08-01T14:06:12;1.70;;;1.60;;
33074;SDS011;19433;51.292;6.868;2023-08-01T14:08:39;1.53;;;1.43;;
33074;SDS011;19433;51.292;6.868;2023-08-01T14:11:06;4.03;;;1.83;;
33074;SDS011;19433;51.292;6.868;2023-08-01T14:13:34;1.53;;;1.17;;
33074;SDS011;19433;51.292;6.868;2023-08-01T14:16:00;1.67;;;1.43;;
33074;SDS011;19433;51.292;6.868;2023-08-01T14:18:26;3.17;;;1.70;;
33074;SDS011;19433;51.292;6.868;2023-08-01T14:20:52;1.77;;;1.23;;
33074;SDS011;19433;51.292;6.868;2023-08-01T14:23:18;2.00;;;1.40;;
33074;SDS011;19433;51.292;6.868;2023-08-01T14:25:44;2.23;;;1.40;;
33074;SDS011;19433;51.292;6.868;2023-08-01T14:28:09;2.93;;;1.53;;
33074;SDS011;19433;51.292;6.868;2023-08-01T14:30:36;3.80;;;1.33;;
33074;SDS011;19433;51.292;6.868;2023-08-01T14:33:05;3.70;;;1.83;;
33074;SDS011;19433;51.292;6.868;2023-08-01T14:35:33;1.70;;;1.60;;
33074;SDS011;19433;51.292;6.868;2023-08-01T14:38:02;1.30;;;1.20;;
33074;SDS011;19433;51.292;6.868;2023-08-01T14:40:28;1.57;;;1.47;;